Chahbahar, Iran
Current Conditions -  °F | °C
As of 12:00 AM on Sunday 21 Dec 2014 (Local Time) from OIZI Reporting Station
Clear Clear  
Wind Chill: 54°   Ceiling: Unl
Heat Index: 54°   Visibility: 6mi
Dew Point: 25°   Wind: 7mph
Humidity: 33%   Direction: 360°N
Pressure: 30.06"   Gusts: NA
Location:  25.28°N, 60.62°E
Report Text: OIZI 202100Z 36006KT CAVOK 12/M04 Q1018
Loading
Personal Weather Stations






























Interactive Weather Map New forecast layout! Learn more

10-Day Weather Forecast

Advertisements
Track Severe Weather on mobile